Time;durP1;ratioP1;P1;durP2;ratioP2;P2;SDS_P1;SDS_P2;PMS_P1;PMS_P2;Temp;Humidity;BMP_temperature;BMP_pressure;BME280_temperature;BME280_humidity;BME280_pressure;Samples;Min_cycle;Max_cycle;Signal;HPM_P1;HPM_P2
2023/12/28 00:01:04;;;;;;;5.72;4.20;;;7.50;99.90;;;;;;5073675;28;20251;-88
2023/12/28 00:03:34;;;;;;;5.78;4.70;;;7.50;99.90;;;;;;5073673;28;20235;-87
2023/12/28 00:06:02;;;;;;;8.15;4.68;;;7.50;99.90;;;;;;5072725;28;20685;-86
2023/12/28 00:08:32;;;;;;;5.00;4.50;;;7.50;99.90;;;;;;5073787;28;20238;-88
2023/12/28 00:10:59;;;;;;;11.25;5.07;;;7.60;99.90;;;;;;5074063;28;20220;-87
2023/12/28 00:13:26;;;;;;;6.68;4.68;;;7.60;99.90;;;;;;5074052;28;20573;-88
2023/12/28 00:15:53;;;;;;;5.55;4.13;;;7.60;99.90;;;;;;5081210;28;20241;-87
2023/12/28 00:18:20;;;;;;;6.78;4.97;;;7.60;99.90;;;;;;5073295;28;20691;-88
2023/12/28 00:20:47;;;;;;;4.32;3.15;;;7.60;99.90;;;;;;5074186;28;20228;-87
2023/12/28 00:23:13;;;;;;;6.35;3.75;;;7.70;99.90;;;;;;5072998;28;20239;-88
2023/12/28 00:25:42;;;;;;;5.95;3.88;;;7.70;99.90;;;;;;5073925;28;20223;-88
2023/12/28 00:28:09;;;;;;;5.75;4.10;;;7.70;99.90;;;;;;5073422;28;20281;-87
2023/12/28 00:30:36;;;;;;;4.95;4.25;;;7.80;99.90;;;;;;5073726;28;20235;-88
2023/12/28 00:33:03;;;;;;;4.85;4.25;;;7.80;99.90;;;;;;5074009;28;20231;-87
2023/12/28 00:35:30;;;;;;;5.40;3.65;;;7.80;99.90;;;;;;5073022;28;20244;-80
2023/12/28 00:37:57;;;;;;;7.93;4.50;;;7.80;99.90;;;;;;5072713;28;20227;-80
2023/12/28 00:40:24;;;;;;;5.70;3.75;;;7.80;99.90;;;;;;5070102;28;20228;-79
2023/12/28 00:42:53;;;;;;;4.28;3.80;;;7.90;99.90;;;;;;5073887;28;20251;-88
2023/12/28 00:45:20;;;;;;;6.20;4.75;;;7.90;99.90;;;;;;5072941;28;20220;-87
2023/12/28 00:47:47;;;;;;;6.13;4.43;;;7.90;99.90;;;;;;5074357;28;20315;-87
2023/12/28 00:50:14;;;;;;;7.20;3.92;;;7.90;99.90;;;;;;5076769;28;20269;-87
2023/12/28 00:52:41;;;;;;;5.25;3.72;;;7.90;99.90;;;;;;5074797;28;20224;-87
2023/12/28 00:55:09;;;;;;;4.00;3.70;;;8.00;99.90;;;;;;5076972;28;20220;-86
2023/12/28 00:57:36;;;;;;;3.47;3.15;;;8.00;99.90;;;;;;5074258;28;20231;-86
2023/12/28 01:00:05;;;;;;;5.28;4.22;;;7.90;99.90;;;;;;5076870;28;20228;-86
2023/12/28 01:02:32;;;;;;;4.07;3.67;;;8.00;99.90;;;;;;5074309;28;20680;-87
2023/12/28 01:04:59;;;;;;;4.78;3.25;;;8.00;99.90;;;;;;5073064;28;20220;-79
2023/12/28 01:07:28;;;;;;;8.23;4.07;;;8.00;99.90;;;;;;5062025;28;20224;-80
2023/12/28 01:09:55;;;;;;;5.90;4.13;;;8.00;99.90;;;;;;5072948;28;20227;-87
2023/12/28 01:12:22;;;;;;;5.28;3.63;;;8.00;99.90;;;;;;5072973;28;20285;-80
2023/12/28 01:14:49;;;;;;;3.95;3.65;;;8.00;99.90;;;;;;5073401;28;20231;-80
2023/12/28 01:17:19;;;;;;;5.32;3.85;;;8.10;99.90;;;;;;5073437;28;20255;-87
2023/12/28 01:19:46;;;;;;;3.45;3.25;;;8.10;99.90;;;;;;5074716;28;20308;-87
2023/12/28 01:22:13;;;;;;;3.10;2.90;;;8.10;99.90;;;;;;5073751;28;20244;-87
2023/12/28 01:24:40;;;;;;;3.13;2.92;;;8.10;99.90;;;;;;5073341;28;20224;-80
2023/12/28 01:27:07;;;;;;;5.30;3.60;;;8.20;99.90;;;;;;5073031;28;20228;-80
2023/12/28 01:29:35;;;;;;;6.57;3.90;;;8.20;99.90;;;;;;5073309;28;20227;-87
2023/12/28 01:32:05;;;;;;;3.45;3.05;;;8.20;99.90;;;;;;5076490;28;20220;-80
2023/12/28 01:34:56;;;;;;;3.20;3.00;;;8.20;99.90;;;;;;5076223;28;20255;-87
2023/12/28 01:37:24;;;;;;;3.35;3.05;;;8.20;99.90;;;;;;5076945;28;20235;-80
2023/12/28 01:39:51;;;;;;;3.65;3.03;;;8.20;99.90;;;;;;5078216;28;20220;-85
2023/12/28 01:42:18;;;;;;;6.35;2.90;;;8.20;99.90;;;;;;5086723;28;20307;-87
2023/12/28 01:44:47;;;;;;;4.05;3.05;;;8.20;99.90;;;;;;5086668;28;20255;-86
2023/12/28 01:47:14;;;;;;;4.70;3.70;;;8.30;99.90;;;;;;5091150;28;20256;-84
2023/12/28 01:49:42;;;;;;;4.53;3.50;;;8.30;99.90;;;;;;5088603;28;20220;-85
2023/12/28 01:52:10;;;;;;;4.50;2.60;;;8.30;99.90;;;;;;5087075;28;20226;-87
2023/12/28 01:54:46;;;;;;;4.10;2.85;;;8.30;99.90;;;;;;5061531;28;20226;-79
2023/12/28 01:57:15;;;;;;;3.45;3.17;;;8.40;99.90;;;;;;5077719;28;20227;-79
2023/12/28 01:59:42;;;;;;;4.28;2.97;;;8.40;99.90;;;;;;5085715;28;20224;-88
2023/12/28 02:02:09;;;;;;;4.72;3.13;;;8.40;99.90;;;;;;5080917;28;20747;-87
2023/12/28 02:04:36;;;;;;;3.58;2.97;;;8.40;99.90;;;;;;5076873;28;20255;-79
2023/12/28 02:07:03;;;;;;;3.03;2.72;;;8.40;99.90;;;;;;5077093;28;20537;-88
2023/12/28 02:09:38;;;;;;;5.00;3.10;;;8.40;99.90;;;;;;5066750;28;20289;-80
2023/12/28 02:12:06;;;;;;;3.13;2.60;;;8.40;99.90;;;;;;5075595;28;20228;-80
2023/12/28 02:14:33;;;;;;;2.72;2.40;;;8.40;99.90;;;;;;5076983;28;20650;-87
2023/12/28 02:17:05;;;;;;;3.15;2.55;;;8.40;99.90;;;;;;5078376;28;20668;-87
2023/12/28 02:19:45;;;;;;;4.50;3.38;;;8.40;99.90;;;;;;5077132;28;20223;-80
2023/12/28 02:22:16;;;;;;;3.72;2.67;;;8.40;99.90;;;;;;5065350;28;20228;-79
2023/12/28 02:25:02;;;;;;;2.92;2.70;;;8.40;99.90;;;;;;5076731;28;20247;-80
2023/12/28 02:27:29;;;;;;;3.70;2.50;;;8.40;99.90;;;;;;5076265;28;20227;-87
2023/12/28 02:29:57;;;;;;;3.60;2.60;;;8.40;99.90;;;;;;5078023;28;20806;-87
2023/12/28 02:32:45;;;;;;;4.78;2.33;;;8.40;99.90;;;;;;5074134;28;20235;-82
2023/12/28 02:35:23;;;;;;;4.07;2.28;;;8.50;99.90;;;;;;5076328;28;20220;-80
2023/12/28 02:37:54;;;;;;;2.55;2.15;;;8.50;99.90;;;;;;5077965;28;20215;-80
2023/12/28 02:40:25;;;;;;;3.90;2.30;;;8.60;99.90;;;;;;5075995;28;20228;-79
2023/12/28 02:42:52;;;;;;;2.08;1.85;;;8.60;99.90;;;;;;5074964;28;20235;-79
2023/12/28 02:45:35;;;;;;;2.88;2.67;;;8.60;99.90;;;;;;5075847;28;20241;-79
2023/12/28 02:48:02;;;;;;;1.85;1.70;;;8.70;99.90;;;;;;5076497;28;20247;-86
2023/12/28 02:50:30;;;;;;;2.45;2.20;;;8.70;99.90;;;;;;5077084;28;20228;-79
2023/12/28 02:52:57;;;;;;;2.28;1.95;;;8.80;99.90;;;;;;5075227;28;20236;-78
2023/12/28 02:55:26;;;;;;;3.00;1.92;;;8.80;99.90;;;;;;5075484;28;20600;-79
2023/12/28 02:57:59;;;;;;;1.73;1.63;;;8.90;99.90;;;;;;5074962;28;20236;-78
2023/12/28 03:00:26;;;;;;;1.70;1.60;;;9.00;99.90;;;;;;5075093;28;20258;-78
2023/12/28 03:02:53;;;;;;;2.30;2.05;;;9.00;99.90;;;;;;5074486;28;20310;-78
2023/12/28 03:05:20;;;;;;;2.78;2.13;;;9.10;99.90;;;;;;5064164;28;20223;-78
2023/12/28 03:07:50;;;;;;;3.03;1.95;;;9.10;99.90;;;;;;5075764;28;20235;-78
2023/12/28 03:10:17;;;;;;;2.10;1.85;;;9.20;99.90;;;;;;5088244;28;20302;-85
2023/12/28 03:12:46;;;;;;;3.10;1.98;;;9.30;99.90;;;;;;5091361;28;20231;-85
2023/12/28 03:15:14;;;;;;;2.20;1.75;;;9.30;99.90;;;;;;5083320;28;20223;-85
2023/12/28 03:17:41;;;;;;;2.10;1.90;;;9.30;99.90;;;;;;5063155;28;20228;-86
2023/12/28 03:20:10;;;;;;;1.88;1.73;;;9.40;99.90;;;;;;5075209;28;20227;-79
2023/12/28 03:22:39;;;;;;;1.80;1.70;;;9.40;99.90;;;;;;5075503;28;20307;-79
2023/12/28 03:25:06;;;;;;;2.55;1.60;;;9.50;99.90;;;;;;5073950;28;20224;-79
2023/12/28 03:27:33;;;;;;;1.95;1.85;;;9.50;99.90;;;;;;5074788;28;20231;-79
2023/12/28 03:30:02;;;;;;;2.20;1.60;;;9.50;99.90;;;;;;5073899;28;20277;-86
2023/12/28 03:32:29;;;;;;;1.85;1.75;;;9.60;99.90;;;;;;5075225;28;20235;-86
2023/12/28 03:34:56;;;;;;;1.77;1.67;;;9.60;99.90;;;;;;5075027;28;20258;-86
2023/12/28 03:37:25;;;;;;;1.67;1.55;;;9.70;99.90;;;;;;5075375;28;20219;-86
2023/12/28 03:39:52;;;;;;;1.75;1.63;;;9.80;99.90;;;;;;5075476;28;20220;-86
2023/12/28 03:42:21;;;;;;;1.35;1.25;;;9.80;99.90;;;;;;5076331;28;20309;-86
2023/12/28 03:44:48;;;;;;;1.65;1.55;;;9.90;99.90;;;;;;5074731;28;20308;-79
2023/12/28 03:47:16;;;;;;;1.75;1.65;;;9.90;99.90;;;;;;5074090;28;20227;-78
2023/12/28 03:49:43;;;;;;;1.60;1.50;;;9.90;99.90;;;;;;5074576;28;20548;-79
2023/12/28 03:52:10;;;;;;;3.20;2.55;;;9.90;99.90;;;;;;5074131;28;20228;-79
2023/12/28 03:54:37;;;;;;;1.60;1.50;;;10.00;99.90;;;;;;5073882;28;20235;-79
2023/12/28 03:57:04;;;;;;;1.80;1.70;;;10.00;99.90;;;;;;5062741;28;20247;-79
2023/12/28 03:59:32;;;;;;;1.63;1.52;;;10.00;99.90;;;;;;5074416;28;20235;-79
2023/12/28 04:01:58;;;;;;;1.40;1.30;;;10.00;99.90;;;;;;5077214;28;20255;-79
2023/12/28 04:04:27;;;;;;;2.83;2.28;;;10.00;99.90;;;;;;5073901;28;20227;-79
2023/12/28 04:06:54;;;;;;;1.90;1.80;;;10.00;99.90;;;;;;5074297;28;20317;-78
2023/12/28 04:09:21;;;;;;;2.03;1.83;;;10.00;99.90;;;;;;5073763;28;20227;-78
2023/12/28 04:11:48;;;;;;;1.70;1.60;;;10.10;99.90;;;;;;5074921;28;20247;-78
2023/12/28 04:14:15;;;;;;;1.73;1.63;;;10.10;99.90;;;;;;5067423;28;20220;-79
2023/12/28 04:16:42;;;;;;;2.97;2.35;;;10.10;99.90;;;;;;5069236;28;20288;-77
2023/12/28 04:19:09;;;;;;;1.65;1.55;;;10.10;99.90;;;;;;5074194;28;20216;-79
2023/12/28 04:21:37;;;;;;;1.63;1.52;;;10.10;99.90;;;;;;5073931;28;20223;-80
2023/12/28 04:24:05;;;;;;;1.80;1.70;;;10.10;99.90;;;;;;5074080;28;20224;-80
2023/12/28 04:26:33;;;;;;;2.90;1.90;;;10.10;99.90;;;;;;5073589;28;20231;-80
2023/12/28 04:29:00;;;;;;;1.70;1.60;;;10.20;99.90;;;;;;5074360;28;20555;-79
2023/12/28 04:31:27;;;;;;;2.85;1.70;;;10.20;99.90;;;;;;5070561;28;20223;-79
2023/12/28 04:33:57;;;;;;;2.03;1.60;;;10.20;99.90;;;;;;5087927;28;20238;-79
2023/12/28 04:36:27;;;;;;;4.80;2.00;;;10.20;99.90;;;;;;5086727;28;20289;-79
2023/12/28 04:38:58;;;;;;;1.83;1.65;;;10.30;99.90;;;;;;5089230;28;20220;-79
2023/12/28 04:41:25;;;;;;;2.13;1.60;;;10.30;99.90;;;;;;5078603;28;20224;-79
2023/12/28 04:43:52;;;;;;;1.73;1.50;;;10.40;99.90;;;;;;5080702;28;20243;-80
2023/12/28 04:46:28;;;;;;;2.00;1.73;;;10.40;99.90;;;;;;5076716;28;20223;-79
2023/12/28 04:48:59;;;;;;;2.13;1.55;;;10.40;99.90;;;;;;5079649;28;20231;-79
2023/12/28 04:51:26;;;;;;;2.92;2.40;;;10.40;99.90;;;;;;5077047;28;20216;-78
2023/12/28 04:53:53;;;;;;;1.60;1.38;;;10.40;99.90;;;;;;5077395;28;20246;-78
2023/12/28 04:56:21;;;;;;;2.35;1.38;;;10.50;99.90;;;;;;5077873;28;20216;-79
2023/12/28 04:59:02;;;;;;;1.67;1.50;;;10.50;99.90;;;;;;5077077;28;20220;-79
2023/12/28 05:01:31;;;;;;;2.10;1.90;;;10.50;99.90;;;;;;5081459;28;20223;-79
2023/12/28 05:03:58;;;;;;;1.75;1.65;;;10.60;99.90;;;;;;5075515;28;20224;-79
2023/12/28 05:06:29;;;;;;;1.70;1.60;;;10.60;99.90;;;;;;5075869;28;20235;-79
2023/12/28 05:08:56;;;;;;;2.97;2.67;;;10.60;99.90;;;;;;5077540;28;20303;-80
2023/12/28 05:11:24;;;;;;;2.05;1.85;;;10.60;99.90;;;;;;5079676;28;20699;-86
2023/12/28 05:13:51;;;;;;;3.65;2.40;;;10.60;99.90;;;;;;5086688;28;20230;-86
2023/12/28 05:16:21;;;;;;;1.80;1.70;;;10.60;99.90;;;;;;5086491;28;20219;-85
2023/12/28 05:18:48;;;;;;;2.13;1.92;;;10.60;99.90;;;;;;5085677;28;20216;-84
2023/12/28 05:21:15;;;;;;;2.25;1.70;;;10.60;99.90;;;;;;5084365;28;20231;-85
2023/12/28 05:23:45;;;;;;;2.72;2.40;;;10.70;99.90;;;;;;5085812;28;20246;-85
2023/12/28 05:26:13;;;;;;;1.80;1.70;;;10.70;99.90;;;;;;5079369;28;20216;-87
2023/12/28 05:28:42;;;;;;;2.35;1.85;;;10.70;99.90;;;;;;5079220;28;20228;-86
2023/12/28 05:31:09;;;;;;;4.03;1.70;;;10.70;99.90;;;;;;5076967;28;20247;-79
2023/12/28 05:33:36;;;;;;;1.70;1.60;;;10.70;99.90;;;;;;5076259;28;20228;-79
2023/12/28 05:36:04;;;;;;;1.90;1.52;;;10.70;99.90;;;;;;5078063;28;20226;-86
2023/12/28 05:38:34;;;;;;;2.53;2.33;;;10.70;99.90;;;;;;5081376;28;20242;-86
2023/12/28 05:41:01;;;;;;;3.38;1.65;;;10.70;99.90;;;;;;5081217;28;20251;-86
2023/12/28 05:43:31;;;;;;;1.48;1.25;;;10.60;99.90;;;;;;5083510;28;20224;-87
2023/12/28 05:45:59;;;;;;;2.22;1.92;;;10.70;99.90;;;;;;5076940;28;20241;-78
2023/12/28 05:48:28;;;;;;;2.72;2.50;;;10.70;99.90;;;;;;5075505;28;20232;-78
2023/12/28 05:50:55;;;;;;;2.63;2.33;;;10.70;99.90;;;;;;5077576;28;20220;-86
2023/12/28 05:53:22;;;;;;;4.63;1.88;;;10.70;99.90;;;;;;5076543;28;20262;-86
2023/12/28 05:55:49;;;;;;;2.85;1.83;;;10.70;99.90;;;;;;5078232;28;20220;-85
2023/12/28 05:58:16;;;;;;;1.85;1.75;;;10.70;99.90;;;;;;5077996;28;20235;-85
2023/12/28 06:00:47;;;;;;;1.60;1.48;;;10.70;99.90;;;;;;5078302;28;20216;-85
2023/12/28 06:03:16;;;;;;;2.08;1.85;;;10.70;99.90;;;;;;5077395;28;20227;-85
2023/12/28 06:05:43;;;;;;;2.47;2.25;;;10.80;99.90;;;;;;5076427;28;20230;-78
2023/12/28 06:08:11;;;;;;;4.25;2.40;;;10.70;99.90;;;;;;5080956;28;20228;-77
2023/12/28 06:10:38;;;;;;;1.98;1.70;;;10.70;99.90;;;;;;5077261;28;20220;-78
2023/12/28 06:13:06;;;;;;;1.75;1.65;;;10.70;99.90;;;;;;5076417;28;20556;-78
2023/12/28 06:15:41;;;;;;;2.03;1.42;;;10.80;99.90;;;;;;5076163;28;20607;-78
2023/12/28 06:18:33;;;;;;;3.17;2.13;;;10.80;99.90;;;;;;5076242;28;20223;-86
2023/12/28 06:21:02;;;;;;;3.15;1.98;;;10.70;99.90;;;;;;5080410;28;20523;-78
2023/12/28 06:23:29;;;;;;;2.20;2.00;;;10.70;99.90;;;;;;5075691;28;20603;-78
2023/12/28 06:25:56;;;;;;;3.25;2.20;;;10.80;99.90;;;;;;5075961;28;20557;-78
2023/12/28 06:28:23;;;;;;;2.22;1.80;;;10.80;99.90;;;;;;5075432;28;20232;-78
2023/12/28 06:30:51;;;;;;;3.22;2.25;;;10.80;99.90;;;;;;5076222;28;20677;-78
2023/12/28 06:33:18;;;;;;;2.78;1.88;;;10.80;99.90;;;;;;5075122;28;20310;-78
2023/12/28 06:35:46;;;;;;;1.85;1.75;;;10.80;99.90;;;;;;5075872;28;20227;-78
2023/12/28 06:38:13;;;;;;;10.18;2.60;;;10.80;99.90;;;;;;5075094;28;20224;-78
2023/12/28 06:40:40;;;;;;;2.90;1.75;;;10.80;99.90;;;;;;5075447;28;20228;-78
2023/12/28 06:43:07;;;;;;;1.65;1.50;;;10.70;99.90;;;;;;5075902;28;20685;-78
2023/12/28 06:45:37;;;;;;;2.95;1.98;;;10.80;99.90;;;;;;5075243;28;20215;-78
2023/12/28 06:48:05;;;;;;;2.28;1.98;;;10.70;99.90;;;;;;5058602;28;20239;-78
2023/12/28 06:50:32;;;;;;;2.33;2.13;;;10.70;99.90;;;;;;5075443;28;20236;-78
2023/12/28 06:53:00;;;;;;;2.90;2.00;;;10.70;99.90;;;;;;5075135;28;20231;-78
2023/12/28 06:55:26;;;;;;;2.35;1.73;;;10.70;99.90;;;;;;5074115;28;20704;-78
2023/12/28 06:57:53;;;;;;;3.43;2.00;;;10.80;99.90;;;;;;5075020;28;20216;-78
2023/12/28 07:00:20;;;;;;;2.72;2.53;;;10.80;99.90;;;;;;5075041;28;20470;-86
2023/12/28 07:02:47;;;;;;;2.47;2.17;;;10.80;99.90;;;;;;5075517;28;20227;-86
2023/12/28 07:05:14;;;;;;;2.08;1.88;;;10.80;99.90;;;;;;5075490;28;20224;-85
2023/12/28 07:07:43;;;;;;;6.10;2.00;;;10.80;99.90;;;;;;5075655;28;20237;-86
2023/12/28 07:10:12;;;;;;;4.32;1.63;;;10.80;99.90;;;;;;5075591;28;20238;-86
2023/12/28 07:12:42;;;;;;;1.80;1.70;;;10.70;99.90;;;;;;5077034;28;20689;-86
2023/12/28 07:15:13;;;;;;;3.42;1.70;;;10.70;99.90;;;;;;5076038;28;20247;-85
2023/12/28 07:17:40;;;;;;;4.20;1.90;;;10.80;99.90;;;;;;5078587;28;20224;-86
2023/12/28 07:20:10;;;;;;;3.00;1.77;;;10.80;99.90;;;;;;5079482;28;20224;-86
2023/12/28 07:22:37;;;;;;;3.40;2.65;;;10.70;99.90;;;;;;5075445;28;20577;-86
2023/12/28 07:25:06;;;;;;;3.75;2.90;;;10.70;99.90;;;;;;5085455;28;20219;-85
2023/12/28 07:27:36;;;;;;;1.98;1.77;;;10.70;99.90;;;;;;5091408;28;20228;-85
2023/12/28 07:30:04;;;;;;;2.28;1.77;;;10.70;99.90;;;;;;5068775;28;20267;-86
2023/12/28 07:32:31;;;;;;;2.00;1.77;;;10.70;99.90;;;;;;5074177;28;20594;-78
2023/12/28 07:34:59;;;;;;;2.33;1.75;;;10.70;99.90;;;;;;5074457;28;20220;-78
2023/12/28 07:37:26;;;;;;;3.97;1.88;;;10.70;99.90;;;;;;5073063;28;20306;-78
2023/12/28 07:39:54;;;;;;;2.75;2.15;;;10.70;99.90;;;;;;5074147;28;20226;-77
2023/12/28 07:42:21;;;;;;;2.10;1.60;;;10.70;99.90;;;;;;5074981;28;20287;-85
2023/12/28 07:44:50;;;;;;;2.28;1.90;;;10.70;99.90;;;;;;5074554;28;20246;-78
2023/12/28 07:47:17;;;;;;;1.98;1.45;;;10.80;99.90;;;;;;5073565;28;20224;-78
2023/12/28 07:49:44;;;;;;;4.13;1.60;;;10.70;99.90;;;;;;5072947;28;20216;-78
2023/12/28 07:52:11;;;;;;;2.28;2.05;;;10.70;99.90;;;;;;5073872;28;20223;-85
2023/12/28 07:54:38;;;;;;;2.25;1.98;;;10.70;99.90;;;;;;5074133;28;20231;-78
2023/12/28 07:57:08;;;;;;;2.00;1.80;;;10.70;99.90;;;;;;5074555;28;20244;-86
2023/12/28 07:59:35;;;;;;;2.03;1.83;;;10.70;99.90;;;;;;5063228;28;20386;-86
2023/12/28 08:02:04;;;;;;;2.92;2.03;;;10.70;99.90;;;;;;5063303;28;20228;-86
2023/12/28 08:04:31;;;;;;;2.47;1.90;;;10.60;99.90;;;;;;5074263;28;20215;-85
2023/12/28 08:06:59;;;;;;;3.42;1.73;;;10.60;99.90;;;;;;5073405;28;20220;-86
2023/12/28 08:09:26;;;;;;;2.10;1.70;;;10.60;99.90;;;;;;5074012;28;20243;-86
2023/12/28 08:11:53;;;;;;;1.88;1.63;;;10.70;99.90;;;;;;5074237;28;20216;-86
2023/12/28 08:14:20;;;;;;;6.53;4.75;;;10.70;99.90;;;;;;5074187;28;20219;-86
2023/12/28 08:16:52;;;;;;;4.80;4.30;;;10.70;99.90;;;;;;5074018;28;20228;-85
2023/12/28 08:19:20;;;;;;;3.83;2.50;;;10.70;99.90;;;;;;5076307;28;20274;-85
2023/12/28 08:21:47;;;;;;;3.33;2.13;;;10.70;99.90;;;;;;5078795;28;20223;-86
2023/12/28 08:24:16;;;;;;;5.55;3.25;;;10.70;99.90;;;;;;5074572;28;20212;-86
2023/12/28 08:26:43;;;;;;;5.20;3.70;;;10.80;99.90;;;;;;5073638;28;20578;-78
2023/12/28 08:29:11;;;;;;;3.90;3.50;;;10.80;99.90;;;;;;5073063;28;20735;-78
2023/12/28 08:31:38;;;;;;;5.80;4.55;;;10.80;99.90;;;;;;5072441;28;20311;-78
2023/12/28 08:34:05;;;;;;;4.43;3.72;;;10.80;99.90;;;;;;5073752;28;20216;-85
2023/12/28 08:36:33;;;;;;;4.68;4.18;;;10.80;99.90;;;;;;5073641;28;20220;-85
2023/12/28 08:39:00;;;;;;;3.75;3.40;;;10.90;99.90;;;;;;5074017;28;20228;-77
2023/12/28 08:41:27;;;;;;;4.60;4.20;;;10.90;99.90;;;;;;5073321;28;20636;-78
2023/12/28 08:43:55;;;;;;;5.75;5.15;;;10.80;99.90;;;;;;5073320;28;20247;-86
2023/12/28 08:46:22;;;;;;;2.83;2.50;;;10.80;99.90;;;;;;5074640;28;20257;-84
2023/12/28 08:48:50;;;;;;;1.90;1.80;;;10.90;99.90;;;;;;5072983;28;20224;-85
2023/12/28 08:51:17;;;;;;;2.40;2.20;;;10.80;99.90;;;;;;5074267;28;20281;-85
2023/12/28 08:53:45;;;;;;;2.88;1.88;;;10.80;99.90;;;;;;5073410;28;20677;-77
2023/12/28 08:56:21;;;;;;;4.03;1.73;;;10.80;99.90;;;;;;5073189;28;20228;-78
2023/12/28 08:58:49;;;;;;;4.78;2.38;;;10.80;99.90;;;;;;5073039;28;20624;-85
2023/12/28 09:01:21;;;;;;;2.13;1.92;;;10.80;99.90;;;;;;5073711;28;20723;-78
2023/12/28 09:03:49;;;;;;;4.15;2.40;;;10.80;99.90;;;;;;5072438;28;20285;-77
2023/12/28 09:06:16;;;;;;;2.25;2.05;;;10.90;99.90;;;;;;5072357;28;20284;-78
2023/12/28 09:08:46;;;;;;;1.70;1.60;;;10.90;99.90;;;;;;5072459;28;20563;-78
2023/12/28 09:11:13;;;;;;;5.88;2.10;;;10.90;99.90;;;;;;5072884;28;20220;-78
2023/12/28 09:13:41;;;;;;;2.65;2.45;;;10.90;99.90;;;;;;5072345;28;20228;-78
2023/12/28 09:16:10;;;;;;;2.92;1.95;;;10.90;99.90;;;;;;5073180;28;20234;-78
2023/12/28 09:18:38;;;;;;;3.53;1.80;;;10.90;99.90;;;;;;5072497;28;20247;-78
2023/12/28 09:21:06;;;;;;;2.47;2.00;;;10.90;99.90;;;;;;5072651;28;20227;-78
2023/12/28 09:23:33;;;;;;;2.10;1.90;;;10.90;99.90;;;;;;5072651;28;20242;-78
2023/12/28 09:26:03;;;;;;;2.58;2.38;;;10.90;99.90;;;;;;5072196;28;20223;-78
2023/12/28 09:28:31;;;;;;;2.33;1.80;;;11.00;99.90;;;;;;5073264;28;20243;-84
2023/12/28 09:30:58;;;;;;;2.85;1.98;;;10.90;99.90;;;;;;5072440;28;20220;-78
2023/12/28 09:33:25;;;;;;;1.70;1.60;;;10.90;99.90;;;;;;5072990;28;20232;-78
2023/12/28 09:35:53;;;;;;;1.80;1.70;;;11.00;99.90;;;;;;5072484;28;20293;-78
2023/12/28 09:38:21;;;;;;;2.65;1.85;;;11.00;99.90;;;;;;5073006;28;20220;-78
2023/12/28 09:40:56;;;;;;;2.85;2.50;;;10.90;99.90;;;;;;5072139;28;20223;-78
2023/12/28 09:43:26;;;;;;;2.40;2.20;;;10.90;99.90;;;;;;5072683;28;20238;-78
2023/12/28 09:45:54;;;;;;;3.38;3.08;;;10.90;99.90;;;;;;5072321;28;20220;-86
2023/12/28 09:48:23;;;;;;;4.30;3.90;;;10.90;99.90;;;;;;5073185;28;20224;-86
2023/12/28 09:50:54;;;;;;;3.80;3.47;;;10.80;99.90;;;;;;5072096;28;20232;-78
2023/12/28 09:53:22;;;;;;;4.00;2.70;;;10.80;99.90;;;;;;5075985;28;20236;-78
2023/12/28 09:55:51;;;;;;;6.68;4.13;;;10.90;99.90;;;;;;5065353;28;20234;-78
2023/12/28 09:58:21;;;;;;;6.30;3.55;;;10.90;99.90;;;;;;5075282;28;20602;-78
2023/12/28 10:00:51;;;;;;;5.43;2.22;;;10.80;99.90;;;;;;5075899;28;20227;-78
2023/12/28 10:03:18;;;;;;;8.40;6.55;;;10.80;99.90;;;;;;5075971;28;20224;-78
2023/12/28 10:05:47;;;;;;;3.45;2.50;;;10.90;99.90;;;;;;5075397;28;20234;-85
2023/12/28 10:08:15;;;;;;;2.60;2.40;;;10.80;99.90;;;;;;5077627;28;20258;-85
2023/12/28 10:10:52;;;;;;;2.30;2.10;;;10.90;99.90;;;;;;5064869;28;20232;-78
2023/12/28 10:13:19;;;;;;;2.60;1.83;;;10.90;99.90;;;;;;5076502;28;20269;-84
2023/12/28 10:15:47;;;;;;;2.10;1.90;;;10.80;99.90;;;;;;5076550;28;20224;-78
2023/12/28 10:18:18;;;;;;;1.88;1.70;;;10.80;99.90;;;;;;5077472;28;20752;-86
2023/12/28 10:20:50;;;;;;;1.70;1.60;;;10.90;99.90;;;;;;5067374;28;20224;-86
2023/12/28 10:23:19;;;;;;;2.80;1.85;;;10.90;99.90;;;;;;5076253;28;20232;-85
2023/12/28 10:25:48;;;;;;;2.90;2.35;;;10.90;99.90;;;;;;5076853;28;20270;-78
2023/12/28 10:28:18;;;;;;;3.70;2.92;;;10.90;99.90;;;;;;5076353;28;20224;-84
2023/12/28 10:30:49;;;;;;;4.78;2.47;;;10.80;99.90;;;;;;5077701;28;20274;-78
2023/12/28 10:33:19;;;;;;;4.15;2.60;;;10.80;99.90;;;;;;5076195;28;20232;-85
2023/12/28 10:35:46;;;;;;;4.90;3.45;;;10.90;99.90;;;;;;5076944;28;20422;-85
2023/12/28 10:38:17;;;;;;;3.30;2.78;;;10.90;99.90;;;;;;5075344;28;20224;-78
2023/12/28 10:40:45;;;;;;;3.00;2.53;;;11.00;99.90;;;;;;5076034;28;20720;-86
2023/12/28 10:43:16;;;;;;;2.83;2.63;;;11.00;99.90;;;;;;5075676;28;20335;-85
2023/12/28 10:45:47;;;;;;;5.55;4.95;;;11.00;99.90;;;;;;5076964;28;20250;-85
2023/12/28 10:48:15;;;;;;;8.27;5.90;;;11.00;99.90;;;;;;5074804;28;20294;-86
2023/12/28 10:50:47;;;;;;;5.05;4.60;;;11.00;99.90;;;;;;5076648;28;20220;-78
2023/12/28 10:53:37;;;;;;;3.42;3.10;;;11.00;99.90;;;;;;5074935;28;20289;-85
2023/12/28 10:56:19;;;;;;;2.33;2.13;;;11.10;99.90;;;;;;5064320;28;20216;-85
2023/12/28 10:58:50;;;;;;;3.97;2.40;;;11.10;99.90;;;;;;5076819;28;20284;-86
2023/12/28 11:01:42;;;;;;;2.78;1.83;;;11.10;99.90;;;;;;5075096;28;20231;-86
2023/12/28 11:04:25;;;;;;;3.53;2.45;;;11.20;99.90;;;;;;5075998;28;20242;-86
2023/12/28 11:06:55;;;;;;;2.97;2.70;;;11.20;99.90;;;;;;5076445;28;20248;-86
2023/12/28 11:09:32;;;;;;;3.22;2.35;;;11.20;99.90;;;;;;5074990;28;20239;-86
2023/12/28 11:12:00;;;;;;;3.55;2.30;;;11.20;99.90;;;;;;5074688;28;20247;-79
2023/12/28 11:14:29;;;;;;;3.63;2.78;;;11.20;99.90;;;;;;5073194;28;20220;-78
2023/12/28 11:17:00;;;;;;;6.00;3.13;;;11.30;99.90;;;;;;5076040;28;20216;-86
2023/12/28 11:19:28;;;;;;;2.40;2.08;;;11.30;99.90;;;;;;5073828;28;20542;-86
2023/12/28 11:22:00;;;;;;;2.53;2.40;;;11.40;99.90;;;;;;5074281;28;20215;-78
2023/12/28 11:24:29;;;;;;;2.03;1.85;;;11.40;99.90;;;;;;5074607;28;20262;-86
2023/12/28 11:26:56;;;;;;;3.30;2.63;;;11.50;99.90;;;;;;5074686;28;20274;-78
2023/12/28 11:29:24;;;;;;;2.85;2.60;;;11.50;99.90;;;;;;5073905;28;20681;-78
2023/12/28 11:31:55;;;;;;;4.38;2.72;;;11.60;99.90;;;;;;5074142;28;20224;-78
2023/12/28 11:34:29;;;;;;;3.17;2.88;;;11.60;99.90;;;;;;5071969;28;20696;-79
2023/12/28 11:36:57;;;;;;;3.45;2.10;;;11.70;99.90;;;;;;5074057;28;20721;-79
2023/12/28 11:39:33;;;;;;;4.43;2.38;;;11.70;99.90;;;;;;5075191;28;20230;-86
2023/12/28 11:42:04;;;;;;;2.78;1.92;;;11.70;99.90;;;;;;5088559;28;20250;-86
2023/12/28 11:44:31;;;;;;;3.25;2.70;;;11.70;99.90;;;;;;5080984;28;20223;-86
2023/12/28 11:46:59;;;;;;;4.07;2.20;;;11.80;99.90;;;;;;5080551;28;20224;-86
2023/12/28 11:49:28;;;;;;;2.35;2.13;;;11.80;99.90;;;;;;5078609;28;20224;-86
2023/12/28 11:51:57;;;;;;;2.53;2.33;;;11.80;99.90;;;;;;5076527;28;20250;-87
2023/12/28 11:54:32;;;;;;;4.70;4.20;;;11.80;99.90;;;;;;5076170;28;20259;-86
2023/12/28 11:56:59;;;;;;;3.80;3.30;;;11.90;99.90;;;;;;5074798;28;20219;-86
2023/12/28 11:59:26;;;;;;;2.67;2.47;;;11.90;99.90;;;;;;5074299;28;20251;-87
2023/12/28 12:01:53;;;;;;;4.85;2.60;;;11.80;99.90;;;;;;5073095;28;20223;-79
2023/12/28 12:04:22;;;;;;;4.18;2.17;;;11.80;99.90;;;;;;5074020;28;20680;-79
2023/12/28 12:06:53;;;;;;;2.70;2.20;;;11.80;99.90;;;;;;5073181;28;20231;-78
2023/12/28 12:09:22;;;;;;;4.82;2.10;;;11.80;99.90;;;;;;5073516;28;20236;-86
2023/12/28 12:11:51;;;;;;;4.65;1.88;;;11.70;99.90;;;;;;5068791;28;20263;-86
2023/12/28 12:14:18;;;;;;;2.63;2.25;;;11.80;99.90;;;;;;5072123;28;20227;-79
2023/12/28 12:16:45;;;;;;;2.20;1.98;;;11.80;99.90;;;;;;5075908;28;20232;-79
2023/12/28 12:19:12;;;;;;;2.20;1.98;;;11.80;99.90;;;;;;5073569;28;20746;-79
2023/12/28 12:21:39;;;;;;;4.70;2.20;;;11.80;99.90;;;;;;5074171;28;20234;-86
2023/12/28 12:24:07;;;;;;;4.55;2.63;;;11.80;99.90;;;;;;5074679;28;20216;-86
2023/12/28 12:26:36;;;;;;;3.97;2.50;;;11.80;99.90;;;;;;5074290;28;20677;-86
2023/12/28 12:29:04;;;;;;;9.95;2.35;;;11.80;99.90;;;;;;5074631;28;20251;-86
2023/12/28 12:31:32;;;;;;;1.95;1.75;;;11.80;99.90;;;;;;5073636;28;20224;-85
2023/12/28 12:33:59;;;;;;;2.40;2.20;;;11.80;99.90;;;;;;5073800;28;20246;-86
2023/12/28 12:36:26;;;;;;;2.13;1.95;;;11.80;99.90;;;;;;5073611;28;20255;-79
2023/12/28 12:38:53;;;;;;;3.00;1.90;;;11.80;99.90;;;;;;5072549;28;20627;-79
2023/12/28 12:41:21;;;;;;;2.70;2.40;;;11.90;99.90;;;;;;5076416;28;20232;-78
2023/12/28 12:43:48;;;;;;;2.00;1.80;;;11.90;99.90;;;;;;5073337;28;20663;-78
2023/12/28 12:46:16;;;;;;;3.17;2.42;;;11.90;99.90;;;;;;5072745;28;20566;-79
2023/12/28 12:48:43;;;;;;;6.03;2.00;;;11.90;99.90;;;;;;5073233;28;20240;-79
2023/12/28 12:51:10;;;;;;;3.17;2.05;;;11.90;99.90;;;;;;5072532;28;20222;-79
2023/12/28 12:53:37;;;;;;;3.65;2.72;;;11.90;99.90;;;;;;5072691;28;20231;-79
2023/12/28 12:56:05;;;;;;;3.58;2.80;;;11.90;99.90;;;;;;5072734;28;20234;-79
2023/12/28 12:58:32;;;;;;;3.10;1.90;;;11.90;99.90;;;;;;5072910;28;20231;-79